createdAt,value
2022-12-20T00:03:02.657Z,7.68
2022-12-20T00:09:48.308Z,7.68
2022-12-20T00:16:36.446Z,7.68
2022-12-20T00:23:21.823Z,7.75
2022-12-20T00:30:08.989Z,7.73
2022-12-20T00:36:56.995Z,7.72
2022-12-20T00:43:43.485Z,7.78
2022-12-20T00:50:28.999Z,7.82
2022-12-20T00:57:16.953Z,7.89
2022-12-20T01:04:03.302Z,7.27
2022-12-20T01:10:48.844Z,7.93
2022-12-20T01:17:36.890Z,7.93
2022-12-20T01:24:23.685Z,7.89
2022-12-20T01:31:10.931Z,7.88
2022-12-20T01:37:58.908Z,7.77
2022-12-20T01:45:15.053Z,7.76
2022-12-20T01:52:09.021Z,7.57
2022-12-20T01:58:59.766Z,7.78
2022-12-20T02:05:48.286Z,7.81
2022-12-20T02:12:42.629Z,7.83
2022-12-20T02:20:17.709Z,7.88
2022-12-20T02:27:48.025Z,7.79
2022-12-20T02:34:40.077Z,7.76
2022-12-20T02:41:35.079Z,7.75
2022-12-20T02:48:21.922Z,7.77
2022-12-20T02:55:11.373Z,7.83
2022-12-20T03:01:59.653Z,7.85
2022-12-20T03:08:45.490Z,7.97
2022-12-20T03:15:33.615Z,7.96
2022-12-20T03:22:21.056Z,7.99
2022-12-20T03:29:07.343Z,7.98
2022-12-20T03:35:55.377Z,8.01
2022-12-20T03:42:41.844Z,8.06
2022-12-20T04:02:52.526Z,8.12
2022-12-20T04:09:38.219Z,8.16
2022-12-20T04:16:31.415Z,8.01
2022-12-20T04:23:19.612Z,8.05
2022-12-20T04:30:06.554Z,8.06
2022-12-20T04:36:52.292Z,8.24
2022-12-20T04:44:02.225Z,8.06
2022-12-20T04:50:55.321Z,8.00
2022-12-20T04:57:41.259Z,8.37
2022-12-20T05:04:35.287Z,7.96
2022-12-20T05:11:23.205Z,7.78
2022-12-20T05:18:09.947Z,8.09
2022-12-20T05:25:19.888Z,8.02
2022-12-20T05:32:07.628Z,8.16
2022-12-20T05:39:03.668Z,8.15
2022-12-20T05:45:55.334Z,8.14
2022-12-20T05:52:50.900Z,8.20
2022-12-20T05:59:37.904Z,8.32
2022-12-20T06:06:29.127Z,8.31
2022-12-20T06:13:15.158Z,8.37
2022-12-20T06:20:01.020Z,8.48
2022-12-20T06:26:50.301Z,8.51
2022-12-20T06:33:37.079Z,8.53
2022-12-20T06:40:22.713Z,8.53
2022-12-20T06:47:10.875Z,8.39
2022-12-20T06:53:57.062Z,8.22
2022-12-20T07:00:43.070Z,8.38
2022-12-20T07:07:31.105Z,8.27
2022-12-20T07:14:16.496Z,8.42
2022-12-20T07:21:04.372Z,8.44
2022-12-20T07:27:54.005Z,8.61
2022-12-20T07:34:40.770Z,8.28
2022-12-20T07:41:26.223Z,8.69
2022-12-20T07:48:18.110Z,8.61
2022-12-20T07:55:08.783Z,8.59
2022-12-20T08:02:00.709Z,8.67
2022-12-20T08:08:57.594Z,8.76
2022-12-20T08:15:43.205Z,8.78
2022-12-20T08:22:28.741Z,8.79
2022-12-20T08:29:16.933Z,8.74
2022-12-20T08:36:03.762Z,8.84
2022-12-20T08:42:49.261Z,8.81
2022-12-20T08:49:40.053Z,8.86
2022-12-20T08:56:29.481Z,9.04
2022-12-20T09:03:15.424Z,9.15
2022-12-20T09:10:03.503Z,9.20
2022-12-20T09:16:49.278Z,9.35
2022-12-20T09:23:37.144Z,9.44
2022-12-20T09:30:25.301Z,9.47
2022-12-20T09:37:11.306Z,9.57
2022-12-20T09:43:57.018Z,9.18
2022-12-20T09:50:56.678Z,9.84
2022-12-20T09:58:02.045Z,10.04
2022-12-20T10:04:48.029Z,10.11
2022-12-20T10:11:54.442Z,10.19
2022-12-20T10:18:59.062Z,10.24
2022-12-20T10:25:46.141Z,10.35
2022-12-20T10:32:34.244Z,10.36
2022-12-20T10:39:19.732Z,10.41
2022-12-20T10:46:08.857Z,10.49
2022-12-20T10:53:25.531Z,10.03
2022-12-20T11:00:32.013Z,10.60
2022-12-20T11:07:28.832Z,10.67
2022-12-20T11:14:21.560Z,10.77
2022-12-20T11:21:28.060Z,10.84
2022-12-20T11:28:32.434Z,10.90
2022-12-20T11:35:25.888Z,10.91
2022-12-20T11:42:24.562Z,11.02
2022-12-20T11:49:54.773Z,11.15
2022-12-20T11:56:47.147Z,11.13
2022-12-20T12:03:38.448Z,11.22
2022-12-20T12:10:27.989Z,11.31
2022-12-20T12:17:32.115Z,11.36
2022-12-20T12:24:27.611Z,11.35
2022-12-20T12:31:20.185Z,11.38
2022-12-20T12:38:44.528Z,11.46
2022-12-20T12:45:33.371Z,11.54
2022-12-20T12:52:39.991Z,11.54
2022-12-20T12:59:55.256Z,11.46
2022-12-20T13:06:59.432Z,11.51
2022-12-20T13:13:44.882Z,11.59
2022-12-20T13:20:35.199Z,11.60
2022-12-20T13:27:33.803Z,11.60
2022-12-20T13:34:42.242Z,11.43
2022-12-20T13:41:38.094Z,11.70
2022-12-20T13:48:30.985Z,11.76
2022-12-20T13:55:29.199Z,11.87
2022-12-20T14:02:25.492Z,11.80
2022-12-20T14:09:31.740Z,11.62
2022-12-20T14:16:21.184Z,11.21
2022-12-20T14:23:15.545Z,11.77
2022-12-20T14:30:01.001Z,11.82
2022-12-20T14:36:49.021Z,11.84
2022-12-20T14:43:38.911Z,11.92
2022-12-20T14:50:30.737Z,12.00
2022-12-20T14:57:26.904Z,12.02
2022-12-20T15:04:33.026Z,12.03
2022-12-20T15:11:24.236Z,12.00
2022-12-20T15:18:15.390Z,11.86
2022-12-20T15:25:04.001Z,11.97
2022-12-20T15:31:51.444Z,12.07
2022-12-20T15:45:47.379Z,11.97
2022-12-20T15:52:34.041Z,11.96
2022-12-20T15:59:57.811Z,12.27
2022-12-20T16:06:27.735Z,11.88
2022-12-20T16:13:21.204Z,11.88
2022-12-20T16:20:08.862Z,11.77
2022-12-20T16:26:56.915Z,11.77
2022-12-20T16:33:42.360Z,11.93
2022-12-20T16:40:30.360Z,11.90
2022-12-20T16:47:18.765Z,11.89
2022-12-20T16:54:19.430Z,11.86
2022-12-20T17:01:07.046Z,11.95
2022-12-20T17:07:59.753Z,11.89
2022-12-20T17:14:45.309Z,11.93
2022-12-20T17:28:39.699Z,11.89
2022-12-20T17:35:30.684Z,11.82
2022-12-20T17:42:16.886Z,11.88
2022-12-20T17:49:05.040Z,12.05
2022-12-20T17:55:50.378Z,12.11
2022-12-20T18:02:35.917Z,12.03
2022-12-20T18:09:25.176Z,12.07
2022-12-20T18:16:11.892Z,12.13
2022-12-20T18:22:57.355Z,12.14
2022-12-20T18:29:45.670Z,12.02
2022-12-20T18:36:34.648Z,11.90
2022-12-20T18:43:20.210Z,11.94
2022-12-20T18:50:11.996Z,11.82
2022-12-20T18:56:58.564Z,11.67
2022-12-20T19:03:44.351Z,11.66
2022-12-20T19:10:35.262Z,11.61
2022-12-20T19:17:20.622Z,11.67
2022-12-20T19:24:09.806Z,11.75
2022-12-20T19:30:58.580Z,11.77
2022-12-20T19:37:44.043Z,11.72
2022-12-20T19:44:29.504Z,11.80
2022-12-20T19:51:19.663Z,11.73
2022-12-20T19:58:05.041Z,11.72
2022-12-20T20:04:50.390Z,11.69
2022-12-20T20:11:38.451Z,11.67
2022-12-20T20:18:28.241Z,11.66
2022-12-20T20:25:13.998Z,11.78
2022-12-20T20:32:03.372Z,11.72
2022-12-20T20:38:49.906Z,11.76
2022-12-20T20:45:35.572Z,11.68
2022-12-20T20:52:23.868Z,11.74
2022-12-20T20:59:15.155Z,11.77
2022-12-20T21:13:12.051Z,11.75
2022-12-20T21:19:57.564Z,11.78
2022-12-20T21:26:43.197Z,11.85
2022-12-20T21:33:32.248Z,11.80
2022-12-20T21:40:17.903Z,11.82
2022-12-20T21:47:03.472Z,11.82
2022-12-20T21:53:54.126Z,11.83
2022-12-20T22:00:39.578Z,11.96
2022-12-20T22:07:24.990Z,11.98
2022-12-20T22:14:16.200Z,12.00
2022-12-20T22:21:01.963Z,12.06
2022-12-20T22:27:47.345Z,12.13
2022-12-20T22:34:35.450Z,12.12
2022-12-20T22:41:23.736Z,12.16
2022-12-20T22:48:09.479Z,12.16
2022-12-20T22:54:57.622Z,12.16
2022-12-20T23:01:43.232Z,12.16
2022-12-20T23:08:31.336Z,12.06
2022-12-20T23:15:31.942Z,12.06
2022-12-20T23:22:29.814Z,12.16
2022-12-20T23:29:16.141Z,12.00
2022-12-20T23:36:07.788Z,12.12
2022-12-20T23:42:56.553Z,12.19
2022-12-20T23:49:41.943Z,12.16
2022-12-20T23:56:29.959Z,12.23
